Thunder radar more information blitzortung!


Radar de pluja more information rain snow radar


Visita la nostra xarxa de llocs de meteo:

Template documentation
and downloads

And another site



No particular awareness of the weather is required.    There are no Weather-warnings

Pagina Historial Weather Underground text

Diari Resum Octubre 9, 2017 Unitats:  Mètric    Imperial   Tant
« Previous Dia
SegĂźent Dia »
Diari Setmana Mensual Anual Personalitzada
  Maxima: Minima: Media:
Temperatura: 25.1 °C 12.1 °C 17.8 °C
Punt de rosada: 15.0 °C 8.8 °C 12.2 °C
Humitat: 82 % 51 % 71 %
Wind Speed: 16.1 km/h 0.0 km/h 3.7 km/h
RĂ fegues de vent: 16.1 km/h - -
Vent:- - SSE
Pression baro: 1021.9 hPa 1018.8 hPa -
Precipitacions: 0.0 mm    
Historical Graphs
 
 
Dades de taula per Octubre 9, 2017
Temps Temperatura Punt de rosada Pression baro Vent Wind Speed RĂ fegues de vent Humitat Rainfall Rate (Hourly)
00:03 16.5 °C 12.4 °C 1020.9 hPa Calm     77 % 0.0 mm
00:08 16.4 °C 12.6 °C 1020.9 hPa Calm     78 % 0.0 mm
00:13 16.3 °C 12.3 °C 1020.9 hPa Calm     77 % 0.0 mm
00:18 16.3 °C 12.3 °C 1020.9 hPa Calm     77 % 0.0 mm
00:23 16.2 °C 12.2 °C 1020.9 hPa Calm     77 % 0.0 mm
00:28 16.2 °C 12.3 °C 1020.9 hPa Calm     78 % 0.0 mm
00:33 16.1 °C 12.3 °C 1020.9 hPa Calm     78 % 0.0 mm
00:38 16.0 °C 12.2 °C 1020.9 hPa Calm     78 % 0.0 mm
00:43 15.9 °C 12.1 °C 1020.9 hPa Calm     78 % 0.0 mm
00:48 15.8 °C 11.9 °C 1020.9 hPa Calm     78 % 0.0 mm
00:53 15.7 °C 11.9 °C 1020.9 hPa Calm     78 % 0.0 mm
00:58 15.6 °C 11.8 °C 1020.9 hPa Calm     78 % 0.0 mm
01:03 15.6 °C 11.8 °C 1020.9 hPa Calm     78 % 0.0 mm
01:08 15.5 °C 11.7 °C 1020.9 hPa Calm     78 % 0.0 mm
01:14 15.4 °C 11.6 °C 1019.9 hPa Calm     78 % 0.0 mm
01:19 15.4 °C 11.8 °C 1019.9 hPa Calm     79 % 0.0 mm
01:24 15.3 °C 11.7 °C 1019.9 hPa Calm     79 % 0.0 mm
01:29 15.4 °C 11.6 °C 1019.9 hPa Calm     78 % 0.0 mm
01:34 15.3 °C 11.7 °C 1019.9 hPa Calm     79 % 0.0 mm
01:39 15.3 °C 11.7 °C 1019.9 hPa Calm     79 % 0.0 mm
01:44 15.3 °C 11.5 °C 1019.9 hPa Calm     78 % 0.0 mm
01:49 15.2 °C 11.4 °C 1019.9 hPa Calm     78 % 0.0 mm
01:54 15.2 °C 11.6 °C 1019.9 hPa Calm     79 % 0.0 mm
01:59 15.2 °C 11.4 °C 1019.9 hPa Calm     78 % 0.0 mm
02:04 15.1 °C 11.5 °C 1019.9 hPa Calm     79 % 0.0 mm
02:09 15.0 °C 11.4 °C 1019.9 hPa East 2.3 km/h 2.3 km/h 79 % 0.0 mm
02:14 14.9 °C 11.3 °C 1019.9 hPa East 3.7 km/h 3.7 km/h 79 % 0.0 mm
02:19 14.8 °C 11.2 °C 1019.9 hPa ENE 5.6 km/h 5.6 km/h 79 % 0.0 mm
02:24 14.6 °C 11.0 °C 1019.9 hPa East 5.6 km/h 5.6 km/h 79 % 0.0 mm
02:29 14.6 °C 11.0 °C 1019.9 hPa East 3.9 km/h 4.2 km/h 79 % 0.0 mm
02:34 14.5 °C 10.9 °C 1019.9 hPa ENE 5.6 km/h 5.6 km/h 79 % 0.0 mm
02:39 14.3 °C 10.7 °C 1019.9 hPa ESE 3.7 km/h 3.7 km/h 79 % 0.0 mm
02:44 14.1 °C 10.7 °C 1019.9 hPa ESE 3.7 km/h 3.7 km/h 80 % 0.0 mm
02:49 14.0 °C 10.4 °C 1019.9 hPa ENE 3.7 km/h 3.7 km/h 79 % 0.0 mm
02:54 13.9 °C 10.3 °C 1019.9 hPa NE 3.7 km/h 3.7 km/h 79 % 0.0 mm
02:59 13.8 °C 10.2 °C 1020.9 hPa NE 1.9 km/h   79 % 0.0 mm
03:04 13.8 °C 10.4 °C 1020.9 hPa Calm     80 % 0.0 mm
03:09 13.7 °C 10.3 °C 1020.9 hPa Calm     80 % 0.0 mm
03:14 13.6 °C 10.0 °C 1020.9 hPa NE 3.7 km/h 3.7 km/h 79 % 0.0 mm
03:19 13.5 °C 9.9 °C 1020.9 hPa SW 3.7 km/h 3.7 km/h 79 % 0.0 mm
03:24 13.4 °C 10.0 °C 1020.9 hPa Calm     80 % 0.0 mm
03:29 13.3 °C 9.9 °C 1019.9 hPa SW 1.4 km/h   80 % 0.0 mm
03:34 13.3 °C 9.9 °C 1019.9 hPa Calm     80 % 0.0 mm
03:39 13.3 °C 9.9 °C 1019.9 hPa Calm     80 % 0.0 mm
03:44 13.3 °C 9.9 °C 1019.9 hPa SW 1.9 km/h 1.9 km/h 80 % 0.0 mm
03:49 13.2 °C 9.8 °C 1019.9 hPa Calm     80 % 0.0 mm
03:54 13.1 °C 9.7 °C 1019.9 hPa SW 1.9 km/h   80 % 0.0 mm
03:59 13.0 °C 9.6 °C 1019.9 hPa Calm     80 % 0.0 mm
04:04 13.0 °C 9.6 °C 1019.9 hPa SW 3.7 km/h   80 % 0.0 mm
04:09 12.9 °C 9.6 °C 1019.9 hPa SW 3.9 km/h 3.9 km/h 80 % 0.0 mm
04:14 12.9 °C 9.3 °C 1019.9 hPa SW 3.2 km/h 3.2 km/h 79 % 0.0 mm
04:19 13.0 °C 9.4 °C 1019.9 hPa Calm     79 % 0.0 mm
04:24 13.0 °C 9.6 °C 1019.9 hPa WSW 3.7 km/h   80 % 0.0 mm
04:29 13.0 °C 9.6 °C 1019.9 hPa WSW 1.9 km/h 1.9 km/h 80 % 0.0 mm
04:34 13.0 °C 9.6 °C 1019.9 hPa WSW 2.3 km/h 2.3 km/h 80 % 0.0 mm
04:36 13.0 °C 9.6 °C 1019.9 hPa WSW 1.9 km/h   80 % 0.0 mm
04:41 13.1 °C 9.7 °C 1019.9 hPa WSW 1.9 km/h 1.9 km/h 80 % 0.0 mm
04:46 13.1 °C 9.7 °C 1019.9 hPa SW 3.7 km/h 3.7 km/h 80 % 0.0 mm
04:51 13.1 °C 9.7 °C 1019.9 hPa SW 1.9 km/h   80 % 0.0 mm
04:56 13.1 °C 9.7 °C 1019.9 hPa Calm     80 % 0.0 mm
05:01 13.0 °C 9.6 °C 1019.9 hPa Calm     80 % 0.0 mm
05:06 13.0 °C 9.6 °C 1019.9 hPa Calm     80 % 0.0 mm
05:12 13.0 °C 9.6 °C 1019.9 hPa Calm     80 % 0.0 mm
05:17 12.9 °C 9.6 °C 1019.9 hPa Calm     80 % 0.0 mm
05:19 12.9 °C 9.6 °C 1019.9 hPa Calm     80 % 0.0 mm
05:22 12.8 °C 9.4 °C 1019.9 hPa Calm     80 % 0.0 mm
05:23 12.8 °C 9.4 °C 1019.9 hPa Calm     80 % 0.0 mm
05:24 12.8 °C 9.4 °C 1019.9 hPa Calm     80 % 0.0 mm
05:26 12.8 °C 9.4 °C 1019.9 hPa Calm     80 % 0.0 mm
05:27 12.7 °C 9.3 °C 1019.9 hPa Calm     80 % 0.0 mm
05:32 12.7 °C 9.3 °C 1019.9 hPa Calm     80 % 0.0 mm
05:35 12.7 °C 9.3 °C 1019.9 hPa Calm     80 % 0.0 mm
05:40 12.7 °C 9.3 °C 1019.9 hPa SW 3.7 km/h 3.7 km/h 80 % 0.0 mm
05:42 12.7 °C 9.3 °C 1019.9 hPa SW 2.3 km/h 2.3 km/h 80 % 0.0 mm
05:47 12.7 °C 9.3 °C 1019.9 hPa Calm     80 % 0.0 mm
05:52 12.7 °C 9.5 °C 1019.9 hPa Calm     81 % 0.0 mm
05:57 12.7 °C 9.3 °C 1019.9 hPa Calm     80 % 0.0 mm
06:02 12.7 °C 9.3 °C 1019.9 hPa Calm     80 % 0.0 mm
06:07 12.8 °C 9.4 °C 1019.9 hPa WSW 2.6 km/h 2.6 km/h 80 % 0.0 mm
06:12 12.9 °C 9.6 °C 1019.9 hPa WSW 1.9 km/h 1.9 km/h 80 % 0.0 mm
06:17 12.9 °C 9.6 °C 1019.9 hPa Calm     80 % 0.0 mm
06:22 12.8 °C 9.4 °C 1019.9 hPa WSW 3.7 km/h 3.7 km/h 80 % 0.0 mm
06:27 12.7 °C 9.3 °C 1019.9 hPa Calm     80 % 0.0 mm
06:32 12.6 °C 9.2 °C 1019.9 hPa Calm     80 % 0.0 mm
06:37 12.6 °C 9.2 °C 1019.9 hPa Calm     80 % 0.0 mm
06:42 12.7 °C 9.5 °C 1019.9 hPa Calm     81 % 0.0 mm
06:44 12.7 °C 9.5 °C 1019.9 hPa Calm     81 % 0.0 mm
06:49 12.7 °C 9.3 °C 1019.9 hPa Calm     80 % 0.0 mm
06:54 12.6 °C 9.2 °C 1019.9 hPa Calm     80 % 0.0 mm
06:59 12.6 °C 9.4 °C 1019.9 hPa Calm     81 % 0.0 mm
07:09 12.6 °C 9.2 °C 1019.9 hPa Calm     80 % 0.0 mm
07:14 12.6 °C 9.4 °C 1019.9 hPa Calm     81 % 0.0 mm
07:19 12.7 °C 9.5 °C 1019.9 hPa North 3.2 km/h 3.2 km/h 81 % 0.0 mm
07:24 12.5 °C 9.3 °C 1019.9 hPa NE 2.3 km/h 2.6 km/h 81 % 0.0 mm
07:29 12.5 °C 9.3 °C 1019.9 hPa NE 2.6 km/h 2.6 km/h 81 % 0.0 mm
07:39 12.5 °C 9.3 °C 1019.9 hPa NE 3.7 km/h 3.7 km/h 81 % 0.0 mm
07:44 12.4 °C 9.2 °C 1019.9 hPa North 1.9 km/h   81 % 0.0 mm
07:49 12.3 °C 8.9 °C 1019.9 hPa WNW 2.6 km/h 2.6 km/h 80 % 0.0 mm
07:54 12.2 °C 8.8 °C 1019.9 hPa WSW 3.7 km/h 3.7 km/h 80 % 0.0 mm
07:59 12.1 °C 8.9 °C 1019.9 hPa Calm     81 % 0.0 mm
08:04 12.1 °C 8.9 °C 1019.9 hPa Calm     81 % 0.0 mm
08:09 12.1 °C 8.9 °C 1019.9 hPa Calm     81 % 0.0 mm
08:14 12.1 °C 8.9 °C 1019.9 hPa SW 3.7 km/h 3.7 km/h 81 % 0.0 mm
08:19 12.1 °C 8.9 °C 1019.9 hPa Calm     81 % 0.0 mm
08:24 12.1 °C 8.9 °C 1019.9 hPa SW 3.2 km/h 3.2 km/h 81 % 0.0 mm
08:29 12.1 °C 8.9 °C 1019.9 hPa SW 4.2 km/h 4.2 km/h 81 % 0.0 mm
08:34 12.2 °C 9.1 °C 1019.9 hPa WSW 3.2 km/h 3.2 km/h 81 % 0.0 mm
08:39 12.3 °C 9.1 °C 1019.9 hPa SW 3.9 km/h 3.9 km/h 81 % 0.0 mm
08:44 12.3 °C 9.1 °C 1019.9 hPa SW 3.7 km/h 3.7 km/h 81 % 0.0 mm
08:49 12.4 °C 9.2 °C 1019.9 hPa WSW 3.7 km/h 3.7 km/h 81 % 0.0 mm
08:54 12.6 °C 9.6 °C 1019.9 hPa WSW 2.6 km/h 2.6 km/h 82 % 0.0 mm
08:59 12.8 °C 9.6 °C 1020.9 hPa WSW 2.3 km/h   81 % 0.0 mm
09:04 13.2 °C 10.2 °C 1020.9 hPa SW 1.9 km/h 2.3 km/h 82 % 0.0 mm
09:09 13.6 °C 10.4 °C 1020.9 hPa SW 2.6 km/h 2.6 km/h 81 % 0.0 mm
09:14 14.0 °C 10.6 °C 1020.9 hPa ESE 2.3 km/h   80 % 0.0 mm
09:19 14.6 °C 11.0 °C 1020.9 hPa NE 2.3 km/h 2.3 km/h 79 % 0.0 mm
09:24 14.8 °C 11.2 °C 1020.9 hPa SSE 2.6 km/h   79 % 0.0 mm
09:29 14.3 °C 10.5 °C 1020.9 hPa WSW 3.7 km/h 3.7 km/h 78 % 0.0 mm
09:34 14.7 °C 10.9 °C 1020.9 hPa WSW 3.7 km/h 3.7 km/h 78 % 0.0 mm
09:39 15.0 °C 11.2 °C 1020.9 hPa South 1.9 km/h   78 % 0.0 mm
09:44 15.0 °C 11.0 °C 1021.9 hPa SW 3.7 km/h 3.7 km/h 77 % 0.0 mm
09:49 14.9 °C 10.9 °C 1021.9 hPa SW 1.9 km/h 2.6 km/h 77 % 0.0 mm
09:54 15.5 °C 11.3 °C 1021.9 hPa NE 2.3 km/h   76 % 0.0 mm
09:59 15.8 °C 11.2 °C 1020.9 hPa East 4.2 km/h 4.2 km/h 74 % 0.0 mm
10:04 16.1 °C 11.3 °C 1020.9 hPa NE 3.7 km/h 3.7 km/h 73 % 0.0 mm
10:09 16.5 °C 11.7 °C 1020.9 hPa NE 3.7 km/h 3.7 km/h 73 % 0.0 mm
10:14 16.7 °C 11.4 °C 1020.9 hPa NNE 3.7 km/h 3.7 km/h 71 % 0.0 mm
10:19 17.1 °C 11.4 °C 1020.9 hPa NNW 5.6 km/h 5.6 km/h 69 % 0.0 mm
10:24 17.4 °C 11.4 °C 1020.9 hPa East 3.9 km/h 3.9 km/h 68 % 0.0 mm
10:29 17.7 °C 11.5 °C 1021.9 hPa NE 5.0 km/h 5.0 km/h 67 % 0.0 mm
10:34 18.0 °C 11.8 °C 1021.9 hPa NE 1.9 km/h   67 % 0.0 mm
10:39 18.2 °C 11.7 °C 1021.9 hPa NNE 5.6 km/h 5.6 km/h 66 % 0.0 mm
10:44 18.3 °C 11.8 °C 1021.9 hPa NE 3.7 km/h 3.7 km/h 66 % 0.0 mm
10:49 18.6 °C 11.9 °C 1021.9 hPa East 3.9 km/h 3.9 km/h 65 % 0.0 mm
10:54 18.5 °C 11.8 °C 1021.9 hPa North 5.6 km/h 5.6 km/h 65 % 0.0 mm
10:59 18.6 °C 11.7 °C 1021.9 hPa ENE 7.4 km/h 7.4 km/h 64 % 0.0 mm
11:04 18.4 °C 11.2 °C 1021.9 hPa NNE 7.4 km/h 7.4 km/h 63 % 0.0 mm
11:09 18.6 °C 11.4 °C 1021.9 hPa NNE 9.3 km/h 9.3 km/h 63 % 0.0 mm
11:14 18.7 °C 11.3 °C 1021.9 hPa ENE 9.3 km/h 9.3 km/h 62 % 0.0 mm
11:19 18.9 °C 11.4 °C 1021.9 hPa NNE 5.6 km/h 5.6 km/h 62 % 0.0 mm
11:24 19.4 °C 11.7 °C 1021.9 hPa NE 9.3 km/h 9.3 km/h 61 % 0.0 mm
11:29 19.3 °C 11.6 °C 1021.9 hPa ENE 5.6 km/h 5.6 km/h 61 % 0.0 mm
11:34 19.5 °C 11.5 °C 1021.9 hPa NNE 7.4 km/h 7.4 km/h 60 % 0.0 mm
11:39 19.3 °C 11.3 °C 1021.9 hPa East 7.4 km/h 7.4 km/h 60 % 0.0 mm
11:44 19.6 °C 11.6 °C 1021.9 hPa NE 7.4 km/h 7.4 km/h 60 % 0.0 mm
11:49 19.8 °C 11.8 °C 1021.9 hPa NE 5.8 km/h 5.8 km/h 60 % 0.0 mm
11:54 20.3 °C 12.0 °C 1021.9 hPa NW 3.7 km/h 3.7 km/h 59 % 0.0 mm
11:59 20.9 °C 12.3 °C 1021.9 hPa WSW 5.6 km/h 5.6 km/h 58 % 0.0 mm
12:02 20.9 °C 12.3 °C 1021.9 hPa South 3.7 km/h 3.7 km/h 58 % 0.0 mm
12:07 21.2 °C 12.6 °C 1021.9 hPa ENE 5.6 km/h 5.6 km/h 58 % 0.0 mm
12:12 21.1 °C 12.5 °C 1021.9 hPa ESE 7.9 km/h 7.9 km/h 58 % 0.0 mm
12:17 21.2 °C 12.6 °C 1021.9 hPa SW 3.7 km/h 3.7 km/h 58 % 0.0 mm
12:22 21.5 °C 12.9 °C 1021.9 hPa North 7.4 km/h 7.4 km/h 58 % 0.0 mm
12:27 21.8 °C 13.4 °C 1021.9 hPa ENE 5.8 km/h 5.8 km/h 59 % 0.0 mm
12:32 21.8 °C 13.4 °C 1021.9 hPa East 7.4 km/h 7.4 km/h 59 % 0.0 mm
12:37 22.1 °C 13.7 °C 1021.9 hPa ESE 5.6 km/h 5.6 km/h 59 % 0.0 mm
12:42 22.0 °C 13.6 °C 1021.9 hPa ESE 7.4 km/h 7.4 km/h 59 % 0.0 mm
12:47 22.2 °C 14.1 °C 1021.9 hPa ESE 11.1 km/h 11.1 km/h 60 % 0.0 mm
12:52 22.1 °C 13.4 °C 1021.9 hPa ESE 10.0 km/h 10.0 km/h 58 % 0.0 mm
12:57 22.3 °C 13.6 °C 1021.9 hPa ENE 7.4 km/h 7.4 km/h 58 % 0.0 mm
13:02 22.2 °C 13.6 °C 1021.9 hPa NW 9.3 km/h 9.3 km/h 58 % 0.0 mm
13:07 22.4 °C 13.7 °C 1021.9 hPa ENE 7.4 km/h 7.4 km/h 58 % 0.0 mm
13:12 22.8 °C 14.1 °C 1021.9 hPa SSE 5.6 km/h 5.6 km/h 58 % 0.0 mm
13:17 22.8 °C 13.8 °C 1020.9 hPa SE 7.4 km/h 7.4 km/h 57 % 0.0 mm
13:22 23.1 °C 14.1 °C 1020.9 hPa West 9.3 km/h 9.3 km/h 57 % 0.0 mm
13:27 23.9 °C 14.6 °C 1020.9 hPa South 5.6 km/h 5.6 km/h 56 % 0.0 mm
13:32 24.0 °C 14.4 °C 1020.9 hPa SSW 6.1 km/h 6.1 km/h 55 % 0.0 mm
13:37 24.3 °C 14.4 °C 1020.9 hPa West 7.4 km/h 7.4 km/h 54 % 0.0 mm
13:42 23.9 °C 14.0 °C 1020.9 hPa WSW 9.3 km/h 9.3 km/h 54 % 0.0 mm
13:47 23.8 °C 14.2 °C 1019.9 hPa WSW 5.8 km/h 5.8 km/h 55 % 0.0 mm
13:52 23.6 °C 13.7 °C 1019.9 hPa ESE 14.8 km/h 14.8 km/h 54 % 0.0 mm
13:57 23.5 °C 13.9 °C 1019.9 hPa ENE 11.1 km/h 11.1 km/h 55 % 0.0 mm
14:02 23.8 °C 14.2 °C 1018.8 hPa East 10.0 km/h 10.0 km/h 55 % 0.0 mm
14:07 23.4 °C 13.6 °C 1018.8 hPa SSE 11.1 km/h 11.1 km/h 54 % 0.0 mm
14:12 23.4 °C 13.6 °C 1018.8 hPa ESE 11.1 km/h 11.1 km/h 54 % 0.0 mm
14:17 23.1 °C 13.6 °C 1019.9 hPa NE 9.3 km/h 9.3 km/h 55 % 0.0 mm
14:22 23.1 °C 13.6 °C 1019.9 hPa NNE 7.4 km/h 7.4 km/h 55 % 0.0 mm
14:27 23.8 °C 14.2 °C 1019.9 hPa East 9.5 km/h 9.7 km/h 55 % 0.0 mm
14:32 24.3 °C 14.1 °C 1019.9 hPa SSE 9.3 km/h 9.3 km/h 53 % 0.0 mm
14:37 24.6 °C 14.4 °C 1019.9 hPa ESE 9.3 km/h 9.3 km/h 53 % 0.0 mm
14:42 25.1 °C 14.3 °C 1019.9 hPa East 7.4 km/h 7.4 km/h 51 % 0.0 mm
14:47 24.6 °C 14.1 °C 1019.9 hPa ESE 13.7 km/h 13.7 km/h 52 % 0.0 mm
14:52 23.9 °C 14.0 °C 1019.9 hPa East 11.1 km/h 11.1 km/h 54 % 0.0 mm
14:57 24.3 °C 14.1 °C 1019.9 hPa ESE 10.0 km/h 10.0 km/h 53 % 0.0 mm
15:02 24.3 °C 14.1 °C 1019.9 hPa ESE 14.8 km/h 14.8 km/h 53 % 0.0 mm
15:07 23.9 °C 14.3 °C 1019.9 hPa ESE 16.1 km/h 16.1 km/h 55 % 0.0 mm
15:12 23.6 °C 14.3 °C 1019.9 hPa ESE 11.1 km/h 11.1 km/h 56 % 0.0 mm
15:17 23.3 °C 14.1 °C 1019.9 hPa ESE 5.6 km/h 5.6 km/h 56 % 0.0 mm
15:22 23.1 °C 13.8 °C 1019.9 hPa SSW 5.6 km/h 6.1 km/h 56 % 0.0 mm
15:27 23.3 °C 14.3 °C 1019.9 hPa SE 7.4 km/h 7.4 km/h 57 % 0.0 mm
15:32 23.4 °C 14.1 °C 1019.9 hPa South 7.4 km/h 7.4 km/h 56 % 0.0 mm
15:37 23.7 °C 14.4 °C 1019.9 hPa South 8.7 km/h 8.7 km/h 56 % 0.0 mm
15:42 23.7 °C 14.4 °C 1019.9 hPa SSW 3.7 km/h 4.2 km/h 56 % 0.0 mm
15:47 23.4 °C 14.1 °C 1019.9 hPa SSW 3.2 km/h 3.2 km/h 56 % 0.0 mm
15:52 23.1 °C 13.8 °C 1019.9 hPa SW 5.0 km/h 5.0 km/h 56 % 0.0 mm
15:57 22.9 °C 13.9 °C 1019.9 hPa SSE 9.3 km/h 9.3 km/h 57 % 0.0 mm
16:02 22.6 °C 13.7 °C 1019.9 hPa ESE 3.7 km/h 3.7 km/h 57 % 0.0 mm
16:07 22.4 °C 13.7 °C 1019.9 hPa SE 9.3 km/h 9.3 km/h 58 % 0.0 mm
16:12 22.3 °C 13.6 °C 1019.9 hPa SSE 5.6 km/h 6.4 km/h 58 % 0.0 mm
16:17 22.3 °C 13.6 °C 1019.9 hPa South 5.6 km/h 5.6 km/h 58 % 0.0 mm
16:22 22.2 °C 13.8 °C 1019.9 hPa SE 7.4 km/h 7.4 km/h 59 % 0.0 mm
16:27 22.2 °C 14.1 °C 1019.9 hPa South 5.3 km/h 5.3 km/h 60 % 0.0 mm
16:32 22.0 °C 13.9 °C 1019.9 hPa ESE 9.3 km/h 9.3 km/h 60 % 0.0 mm
16:37 21.9 °C 14.1 °C 1019.9 hPa SSE 7.6 km/h 7.6 km/h 61 % 0.0 mm
16:42 22.0 °C 14.1 °C 1019.9 hPa South 7.4 km/h 7.4 km/h 61 % 0.0 mm
16:47 22.0 °C 14.1 °C 1018.8 hPa SSW 5.6 km/h 5.6 km/h 61 % 0.0 mm
16:52 22.0 °C 14.1 °C 1018.8 hPa SSW 5.6 km/h 5.8 km/h 61 % 0.0 mm
16:57 22.0 °C 14.1 °C 1018.8 hPa South 11.1 km/h 11.1 km/h 61 % 0.0 mm
17:02 22.0 °C 14.1 °C 1018.8 hPa South 7.4 km/h 7.4 km/h 61 % 0.0 mm
17:07 22.1 °C 14.2 °C 1018.8 hPa SSE 10.3 km/h 10.3 km/h 61 % 0.0 mm
17:12 22.3 °C 14.4 °C 1018.8 hPa SSE 11.1 km/h 11.1 km/h 61 % 0.0 mm
17:17 22.7 °C 14.8 °C 1018.8 hPa West 5.6 km/h 5.6 km/h 61 % 0.0 mm
17:22 23.1 °C 14.9 °C 1018.8 hPa SW 4.2 km/h 4.7 km/h 60 % 0.0 mm
17:27 23.2 °C 15.0 °C 1018.8 hPa SW 9.5 km/h 9.5 km/h 60 % 0.0 mm
17:32 22.8 °C 14.4 °C 1018.8 hPa SW 5.6 km/h 5.6 km/h 59 % 0.0 mm
17:37 22.7 °C 14.3 °C 1018.8 hPa WSW 3.7 km/h   59 % 0.0 mm
17:43 23.0 °C 14.6 °C 1018.8 hPa WSW 5.6 km/h 5.6 km/h 59 % 0.0 mm
17:48 23.1 °C 14.7 °C 1018.8 hPa SW 13.0 km/h 13.0 km/h 59 % 0.0 mm
17:53 22.8 °C 14.6 °C 1018.8 hPa WSW 11.9 km/h 11.9 km/h 60 % 0.0 mm
17:58 22.9 °C 14.7 °C 1018.8 hPa South 9.5 km/h 9.5 km/h 60 % 0.0 mm
18:03 22.8 °C 14.4 °C 1018.8 hPa South 9.0 km/h 9.0 km/h 59 % 0.0 mm
18:08 22.5 °C 14.1 °C 1018.8 hPa SW 10.0 km/h 10.0 km/h 59 % 0.0 mm
18:13 22.6 °C 14.2 °C 1018.8 hPa SW 9.3 km/h 9.3 km/h 59 % 0.0 mm
18:18 22.5 °C 14.3 °C 1018.8 hPa SW 7.4 km/h 7.4 km/h 60 % 0.0 mm
18:23 22.5 °C 14.3 °C 1018.8 hPa SW 9.3 km/h 9.3 km/h 60 % 0.0 mm
18:28 22.3 °C 14.2 °C 1018.8 hPa South 7.4 km/h 7.4 km/h 60 % 0.0 mm
18:33 22.3 °C 14.4 °C 1018.8 hPa SW 5.8 km/h 5.8 km/h 61 % 0.0 mm
18:38 22.2 °C 14.3 °C 1018.8 hPa SW 7.4 km/h 7.4 km/h 61 % 0.0 mm
18:43 21.9 °C 14.3 °C 1018.8 hPa West 7.4 km/h 7.4 km/h 62 % 0.0 mm
18:48 21.8 °C 14.4 °C 1018.8 hPa West 5.6 km/h 5.6 km/h 63 % 0.0 mm
18:53 21.6 °C 14.3 °C 1018.8 hPa South 7.4 km/h 7.4 km/h 63 % 0.0 mm
18:58 21.5 °C 14.2 °C 1019.9 hPa SW 9.3 km/h 9.3 km/h 63 % 0.0 mm
19:03 21.3 °C 13.9 °C 1019.9 hPa SSE 7.4 km/h 7.4 km/h 63 % 0.0 mm
19:08 21.1 °C 14.0 °C 1019.9 hPa SW 3.9 km/h 3.9 km/h 64 % 0.0 mm
19:13 20.9 °C 14.1 °C 1019.9 hPa SSW 9.3 km/h 9.3 km/h 65 % 0.0 mm
19:18 20.7 °C 13.9 °C 1019.9 hPa ESE 7.4 km/h 7.4 km/h 65 % 0.0 mm
19:23 20.5 °C 13.9 °C 1019.9 hPa West 5.6 km/h 5.6 km/h 66 % 0.0 mm
19:28 20.4 °C 13.8 °C 1018.8 hPa WSW 5.6 km/h 5.6 km/h 66 % 0.0 mm
19:33 20.2 °C 13.9 °C 1018.8 hPa SW 3.7 km/h 3.7 km/h 67 % 0.0 mm
19:38 20.1 °C 13.8 °C 1018.8 hPa SW 3.7 km/h 3.7 km/h 67 % 0.0 mm
19:43 20.0 °C 13.7 °C 1019.9 hPa WSW 3.2 km/h 3.9 km/h 67 % 0.0 mm
19:48 19.9 °C 13.8 °C 1019.9 hPa SW 3.7 km/h 3.7 km/h 68 % 0.0 mm
19:53 19.8 °C 13.9 °C 1019.9 hPa SW 3.7 km/h 3.7 km/h 69 % 0.0 mm
19:58 19.7 °C 13.8 °C 1019.9 hPa SW 1.9 km/h   69 % 0.0 mm
20:03 19.6 °C 14.0 °C 1019.9 hPa Calm     70 % 0.0 mm
20:08 19.5 °C 13.9 °C 1019.9 hPa SW 2.6 km/h 2.6 km/h 70 % 0.0 mm
20:18 19.3 °C 13.9 °C 1019.9 hPa SW 1.9 km/h   71 % 0.0 mm
20:23 19.3 °C 13.9 °C 1019.9 hPa SW 1.9 km/h   71 % 0.0 mm
20:28 19.2 °C 14.1 °C 1018.8 hPa SW 1.9 km/h   72 % 0.0 mm
20:33 19.2 °C 14.1 °C 1018.8 hPa Calm     72 % 0.0 mm
20:38 19.1 °C 13.9 °C 1018.8 hPa Calm     72 % 0.0 mm
20:43 19.0 °C 13.8 °C 1019.9 hPa Calm     72 % 0.0 mm
20:48 19.0 °C 14.1 °C 1019.9 hPa Calm     73 % 0.0 mm
20:53 18.9 °C 14.2 °C 1019.9 hPa Calm     74 % 0.0 mm
20:58 18.9 °C 14.2 °C 1019.9 hPa Calm     74 % 0.0 mm
21:03 18.8 °C 14.3 °C 1019.9 hPa Calm     75 % 0.0 mm
21:08 18.8 °C 14.3 °C 1019.9 hPa Calm     75 % 0.0 mm
21:18 18.7 °C 14.2 °C 1019.9 hPa Calm     75 % 0.0 mm
21:23 18.6 °C 14.3 °C 1019.9 hPa Calm     76 % 0.0 mm
21:28 18.5 °C 14.2 °C 1019.9 hPa Calm     76 % 0.0 mm
21:33 18.5 °C 14.2 °C 1019.9 hPa Calm     76 % 0.0 mm
21:38 18.4 °C 14.1 °C 1019.9 hPa Calm     76 % 0.0 mm
21:43 18.3 °C 14.2 °C 1019.9 hPa Calm     77 % 0.0 mm
21:48 18.3 °C 14.2 °C 1019.9 hPa Calm     77 % 0.0 mm
21:53 18.3 °C 14.2 °C 1019.9 hPa Calm     77 % 0.0 mm
21:58 18.3 °C 14.2 °C 1019.9 hPa Calm     77 % 0.0 mm
22:03 18.3 °C 14.4 °C 1019.9 hPa Calm     78 % 0.0 mm
22:08 18.3 °C 14.4 °C 1019.9 hPa Calm     78 % 0.0 mm
22:13 18.3 °C 14.4 °C 1019.9 hPa Calm     78 % 0.0 mm
22:18 18.2 °C 14.3 °C 1019.9 hPa Calm     78 % 0.0 mm
22:23 18.2 °C 14.3 °C 1019.9 hPa Calm     78 % 0.0 mm
22:28 18.3 °C 14.4 °C 1020.9 hPa Calm     78 % 0.0 mm
22:33 18.2 °C 14.3 °C 1020.9 hPa Calm     78 % 0.0 mm
22:38 18.2 °C 14.5 °C 1020.9 hPa Calm     79 % 0.0 mm
22:43 18.2 °C 14.5 °C 1019.9 hPa Calm     79 % 0.0 mm
22:48 18.2 °C 14.5 °C 1019.9 hPa Calm     79 % 0.0 mm
22:53 18.2 °C 14.5 °C 1019.9 hPa Calm     79 % 0.0 mm
22:58 18.2 °C 14.3 °C 1019.9 hPa Calm     78 % 0.0 mm
23:03 18.1 °C 14.2 °C 1019.9 hPa Calm     78 % 0.0 mm
23:08 18.1 °C 14.2 °C 1019.9 hPa Calm     78 % 0.0 mm
23:13 18.1 °C 14.2 °C 1019.9 hPa Calm     78 % 0.0 mm
23:23 18.0 °C 14.3 °C 1019.9 hPa Calm     79 % 0.0 mm
23:28 18.0 °C 14.3 °C 1019.9 hPa Calm     79 % 0.0 mm
23:33 18.0 °C 14.3 °C 1019.9 hPa Calm     79 % 0.0 mm
23:38 18.0 °C 14.3 °C 1019.9 hPa Calm     79 % 0.0 mm
23:43 18.0 °C 14.3 °C 1019.9 hPa East 1.9 km/h   79 % 0.0 mm
23:48 18.0 °C 14.5 °C 1019.9 hPa East 2.3 km/h 2.3 km/h 80 % 0.0 mm
23:54 17.8 °C 14.1 °C 1019.9 hPa Calm     79 % 0.0 mm
23:59 17.8 °C 14.3 °C 1019.9 hPa SSE 3.7 km/h 3.7 km/h 80 % 0.0 mm
Meteo Sesrovires
Elogis d' Weather Underground - 4 mb

Guio original per  Jim McMurry - jmcmurry@mwt.net Adaptat per a la plantilla per  Wim van der Kuil - Leuven-Template.eu

Trobareu la nostra informacio del temps tambe a:

Weather Underground

AWEKAS